Weather Data

Pearl Creek Farm: 8878 N Farm Road 75, Walnut Grove MO 65770

<== Previous Day (Monday 24 Apr 2017) | Next Day (Wednesday 26 Apr 2017) ==>

Summary Precipitation Data For Tuesday 25 April 2017

ElementValueUnits
Precipitation0"
Notes(none)
SourcePearl Creek Farm

Summary Temperature Data For Tuesday 25 April 2017

ElementValueUnits
High Temperature81 oF
Low Temperature55 oF
Average Temperature68 oF
High Humidity81 %
Low Humidity45 %
Average Humidity57 %
SourceSpringfield-Branson National Airport (SGF)

Detail Temperature Data For Tuesday 25 April 2017

Date / TimeTemp (F)RH (%)Dew Pt (F)Report Date / TimeSource
2017-04-25 00:52:00 59 48 39.0 2017-12-29 17:00:26.17417 Springfield-Branson National Airport (SGF)
2017-04-25 01:52:00 57 53 40.0 2017-12-29 17:00:26.17417 Springfield-Branson National Airport (SGF)
2017-04-25 02:52:00 56 57 41.0 2017-12-29 17:00:26.17417 Springfield-Branson National Airport (SGF)
2017-04-25 03:52:00 55 62 42.0 2017-12-29 17:00:26.17417 Springfield-Branson National Airport (SGF)
2017-04-25 04:52:00 55 62 42.0 2017-12-29 17:00:26.17417 Springfield-Branson National Airport (SGF)
2017-04-25 05:52:00 55 64 43.0 2017-12-29 17:00:26.17417 Springfield-Branson National Airport (SGF)
2017-04-25 06:52:00 59 58 44.0 2017-12-29 17:00:26.17417 Springfield-Branson National Airport (SGF)
2017-04-25 07:52:00 63 54 46.0 2017-12-29 17:00:26.17417 Springfield-Branson National Airport (SGF)
2017-04-25 08:52:00 67 53 49.0 2017-12-29 17:00:26.17417 Springfield-Branson National Airport (SGF)
2017-04-25 09:52:00 70 49 50.0 2017-12-29 17:00:26.17417 Springfield-Branson National Airport (SGF)
2017-04-25 10:52:00 73 50 53.0 2017-12-29 17:00:26.17417 Springfield-Branson National Airport (SGF)
2017-04-25 11:52:00 76 48 55.0 2017-12-29 17:00:26.17417 Springfield-Branson National Airport (SGF)
2017-04-25 12:52:00 79 47 57.0 2017-12-29 17:00:26.17417 Springfield-Branson National Airport (SGF)
2017-04-25 13:52:00 81 45 58.0 2017-12-29 17:00:26.17417 Springfield-Branson National Airport (SGF)
2017-04-25 14:52:00 80 47 58.0 2017-12-29 17:00:26.17417 Springfield-Branson National Airport (SGF)
2017-04-25 15:52:00 81 45 58.0 2017-12-29 17:00:26.17417 Springfield-Branson National Airport (SGF)
2017-04-25 16:52:00 78 50 58.0 2017-12-29 17:00:26.17417 Springfield-Branson National Airport (SGF)
2017-04-25 17:52:00 75 58 59.0 2017-12-29 17:00:26.17417 Springfield-Branson National Airport (SGF)
2017-04-25 18:52:00 75 60 60.0 2017-12-29 17:00:26.17417 Springfield-Branson National Airport (SGF)
2017-04-25 19:52:00 73 66 61.0 2017-12-29 17:00:26.17417 Springfield-Branson National Airport (SGF)
2017-04-25 20:52:00 72 68 61.0 2017-12-29 17:00:26.17417 Springfield-Branson National Airport (SGF)
2017-04-25 21:52:00 68 76 60.0 2017-12-29 17:00:26.17417 Springfield-Branson National Airport (SGF)
2017-04-25 22:52:00 66 81 60.0 2017-12-29 17:00:26.17417 Springfield-Branson National Airport (SGF)
2017-04-25 23:52:00 69 78 62.0 2017-12-29 17:00:26.17417 Springfield-Branson National Airport (SGF)

A total of 24 rows are displayed.